sensor_id;sensor_type;location;lat;lon;timestamp;P1;durP1;ratioP1;P2;durP2;ratioP2
36257;SDS011;22294;52.044;4.582;2022-10-31T00:01:29;4.78;;;2.05;;
36257;SDS011;22294;52.044;4.582;2022-10-31T00:03:58;3.90;;;1.80;;
36257;SDS011;22294;52.044;4.582;2022-10-31T00:06:23;5.43;;;1.85;;
36257;SDS011;22294;52.044;4.582;2022-10-31T00:08:53;4.30;;;1.95;;
36257;SDS011;22294;52.044;4.582;2022-10-31T00:11:20;4.70;;;2.03;;
36257;SDS011;22294;52.044;4.582;2022-10-31T00:13:46;6.28;;;2.00;;
36257;SDS011;22294;52.044;4.582;2022-10-31T00:16:13;5.18;;;2.08;;
36257;SDS011;22294;52.044;4.582;2022-10-31T00:18:49;3.25;;;1.90;;
36257;SDS011;22294;52.044;4.582;2022-10-31T00:21:16;4.75;;;1.75;;
36257;SDS011;22294;52.044;4.582;2022-10-31T00:23:41;4.43;;;1.88;;
36257;SDS011;22294;52.044;4.582;2022-10-31T00:26:06;4.20;;;2.22;;
36257;SDS011;22294;52.044;4.582;2022-10-31T00:28:32;3.95;;;1.50;;
36257;SDS011;22294;52.044;4.582;2022-10-31T00:30:58;3.72;;;2.05;;
36257;SDS011;22294;52.044;4.582;2022-10-31T00:33:29;3.10;;;1.42;;
36257;SDS011;22294;52.044;4.582;2022-10-31T00:35:54;5.25;;;2.10;;
36257;SDS011;22294;52.044;4.582;2022-10-31T00:38:20;3.53;;;1.85;;
36257;SDS011;22294;52.044;4.582;2022-10-31T00:40:45;2.63;;;1.80;;
36257;SDS011;22294;52.044;4.582;2022-10-31T00:43:10;3.55;;;1.85;;
36257;SDS011;22294;52.044;4.582;2022-10-31T00:45:36;4.18;;;2.25;;
36257;SDS011;22294;52.044;4.582;2022-10-31T00:48:01;2.60;;;1.70;;
36257;SDS011;22294;52.044;4.582;2022-10-31T00:50:26;4.57;;;1.80;;
36257;SDS011;22294;52.044;4.582;2022-10-31T00:52:51;3.55;;;1.95;;
36257;SDS011;22294;52.044;4.582;2022-10-31T00:55:17;2.47;;;1.65;;
36257;SDS011;22294;52.044;4.582;2022-10-31T00:57:42;4.32;;;1.88;;
36257;SDS011;22294;52.044;4.582;2022-10-31T01:00:07;3.42;;;2.00;;
36257;SDS011;22294;52.044;4.582;2022-10-31T01:02:33;3.55;;;2.03;;
36257;SDS011;22294;52.044;4.582;2022-10-31T01:04:58;3.63;;;1.98;;
36257;SDS011;22294;52.044;4.582;2022-10-31T01:07:24;2.58;;;1.80;;
36257;SDS011;22294;52.044;4.582;2022-10-31T01:09:49;3.53;;;2.38;;
36257;SDS011;22294;52.044;4.582;2022-10-31T01:12:14;3.45;;;2.30;;
36257;SDS011;22294;52.044;4.582;2022-10-31T01:14:43;3.95;;;1.95;;
36257;SDS011;22294;52.044;4.582;2022-10-31T01:17:11;5.53;;;2.30;;
36257;SDS011;22294;52.044;4.582;2022-10-31T01:19:38;4.40;;;2.30;;
36257;SDS011;22294;52.044;4.582;2022-10-31T01:22:04;4.68;;;2.50;;
36257;SDS011;22294;52.044;4.582;2022-10-31T01:24:29;4.00;;;2.53;;
36257;SDS011;22294;52.044;4.582;2022-10-31T01:26:54;2.85;;;2.20;;
36257;SDS011;22294;52.044;4.582;2022-10-31T01:29:20;3.97;;;2.30;;
36257;SDS011;22294;52.044;4.582;2022-10-31T01:31:45;3.95;;;2.50;;
36257;SDS011;22294;52.044;4.582;2022-10-31T01:34:12;4.38;;;2.38;;
36257;SDS011;22294;52.044;4.582;2022-10-31T01:36:39;6.18;;;2.72;;
36257;SDS011;22294;52.044;4.582;2022-10-31T01:39:06;4.20;;;2.90;;
36257;SDS011;22294;52.044;4.582;2022-10-31T01:41:35;4.57;;;2.63;;
36257;SDS011;22294;52.044;4.582;2022-10-31T01:44:03;5.63;;;3.38;;
36257;SDS011;22294;52.044;4.582;2022-10-31T01:47:00;4.32;;;2.92;;
36257;SDS011;22294;52.044;4.582;2022-10-31T01:52:12;7.78;;;3.20;;
36257;SDS011;22294;52.044;4.582;2022-10-31T01:54:43;5.55;;;3.03;;
36257;SDS011;22294;52.044;4.582;2022-10-31T01:57:13;5.50;;;3.40;;
36257;SDS011;22294;52.044;4.582;2022-10-31T01:59:41;3.97;;;3.10;;
36257;SDS011;22294;52.044;4.582;2022-10-31T02:02:09;5.80;;;3.13;;
36257;SDS011;22294;52.044;4.582;2022-10-31T02:04:36;4.13;;;3.13;;
36257;SDS011;22294;52.044;4.582;2022-10-31T02:07:09;5.00;;;3.20;;
36257;SDS011;22294;52.044;4.582;2022-10-31T02:09:38;7.55;;;3.85;;
36257;SDS011;22294;52.044;4.582;2022-10-31T02:12:05;6.28;;;3.30;;
36257;SDS011;22294;52.044;4.582;2022-10-31T02:14:31;6.22;;;3.55;;
36257;SDS011;22294;52.044;4.582;2022-10-31T02:16:58;5.60;;;3.85;;
36257;SDS011;22294;52.044;4.582;2022-10-31T02:19:40;3.75;;;3.35;;
36257;SDS011;22294;52.044;4.582;2022-10-31T02:22:16;7.55;;;3.60;;
36257;SDS011;22294;52.044;4.582;2022-10-31T02:24:57;4.80;;;3.63;;
36257;SDS011;22294;52.044;4.582;2022-10-31T02:27:55;8.18;;;3.95;;
36257;SDS011;22294;52.044;4.582;2022-10-31T02:33:29;6.88;;;4.60;;
36257;SDS011;22294;52.044;4.582;2022-10-31T02:36:04;6.30;;;4.80;;
36257;SDS011;22294;52.044;4.582;2022-10-31T02:38:48;7.88;;;4.82;;
36257;SDS011;22294;52.044;4.582;2022-10-31T02:41:37;7.28;;;5.22;;
36257;SDS011;22294;52.044;4.582;2022-10-31T02:47:15;7.70;;;5.90;;
36257;SDS011;22294;52.044;4.582;2022-10-31T02:49:50;9.05;;;5.88;;
36257;SDS011;22294;52.044;4.582;2022-10-31T02:52:36;9.95;;;5.78;;
36257;SDS011;22294;52.044;4.582;2022-10-31T02:55:12;8.80;;;5.47;;
36257;SDS011;22294;52.044;4.582;2022-10-31T02:58:02;11.15;;;5.93;;
36257;SDS011;22294;52.044;4.582;2022-10-31T03:00:34;11.52;;;6.43;;
36257;SDS011;22294;52.044;4.582;2022-10-31T03:03:14;8.43;;;5.68;;
36257;SDS011;22294;52.044;4.582;2022-10-31T03:05:54;9.05;;;5.47;;
36257;SDS011;22294;52.044;4.582;2022-10-31T03:08:55;7.93;;;5.93;;
36257;SDS011;22294;52.044;4.582;2022-10-31T03:14:38;11.77;;;6.38;;
36257;SDS011;22294;52.044;4.582;2022-10-31T03:17:09;9.00;;;6.50;;
36257;SDS011;22294;52.044;4.582;2022-10-31T03:19:48;9.65;;;6.53;;
36257;SDS011;22294;52.044;4.582;2022-10-31T03:22:19;11.45;;;7.90;;
36257;SDS011;22294;52.044;4.582;2022-10-31T03:24:48;13.18;;;7.68;;
36257;SDS011;22294;52.044;4.582;2022-10-31T03:27:15;11.65;;;7.35;;
36257;SDS011;22294;52.044;4.582;2022-10-31T03:29:45;12.65;;;8.20;;
36257;SDS011;22294;52.044;4.582;2022-10-31T03:32:18;12.05;;;7.88;;
36257;SDS011;22294;52.044;4.582;2022-10-31T03:34:47;10.98;;;8.38;;
36257;SDS011;22294;52.044;4.582;2022-10-31T03:37:15;12.50;;;8.00;;
36257;SDS011;22294;52.044;4.582;2022-10-31T03:39:44;12.80;;;8.07;;
36257;SDS011;22294;52.044;4.582;2022-10-31T03:42:14;11.90;;;7.78;;
36257;SDS011;22294;52.044;4.582;2022-10-31T03:44:42;11.27;;;7.80;;
36257;SDS011;22294;52.044;4.582;2022-10-31T03:47:10;12.85;;;8.15;;
36257;SDS011;22294;52.044;4.582;2022-10-31T03:49:36;11.30;;;8.80;;
36257;SDS011;22294;52.044;4.582;2022-10-31T03:52:07;15.70;;;9.15;;
36257;SDS011;22294;52.044;4.582;2022-10-31T03:54:36;11.05;;;8.00;;
36257;SDS011;22294;52.044;4.582;2022-10-31T03:57:15;10.45;;;8.90;;
36257;SDS011;22294;52.044;4.582;2022-10-31T03:59:42;12.18;;;7.97;;
36257;SDS011;22294;52.044;4.582;2022-10-31T04:02:16;12.05;;;8.40;;
36257;SDS011;22294;52.044;4.582;2022-10-31T04:04:45;11.45;;;8.77;;
36257;SDS011;22294;52.044;4.582;2022-10-31T04:07:12;13.90;;;8.50;;
36257;SDS011;22294;52.044;4.582;2022-10-31T04:09:39;13.02;;;8.57;;
36257;SDS011;22294;52.044;4.582;2022-10-31T04:12:08;12.70;;;8.75;;
36257;SDS011;22294;52.044;4.582;2022-10-31T04:14:37;13.15;;;8.82;;
36257;SDS011;22294;52.044;4.582;2022-10-31T04:17:05;14.77;;;9.02;;
36257;SDS011;22294;52.044;4.582;2022-10-31T04:19:34;15.05;;;10.13;;
36257;SDS011;22294;52.044;4.582;2022-10-31T04:21:59;17.08;;;9.82;;
36257;SDS011;22294;52.044;4.582;2022-10-31T04:24:26;12.38;;;9.25;;
36257;SDS011;22294;52.044;4.582;2022-10-31T04:26:51;10.48;;;8.63;;
36257;SDS011;22294;52.044;4.582;2022-10-31T04:29:16;14.93;;;9.25;;
36257;SDS011;22294;52.044;4.582;2022-10-31T04:31:42;12.98;;;9.88;;
36257;SDS011;22294;52.044;4.582;2022-10-31T04:34:07;14.50;;;9.55;;
36257;SDS011;22294;52.044;4.582;2022-10-31T04:36:33;11.77;;;8.75;;
36257;SDS011;22294;52.044;4.582;2022-10-31T04:38:58;14.77;;;10.20;;
36257;SDS011;22294;52.044;4.582;2022-10-31T04:41:23;15.02;;;8.88;;
36257;SDS011;22294;52.044;4.582;2022-10-31T04:43:48;12.23;;;9.60;;
36257;SDS011;22294;52.044;4.582;2022-10-31T04:46:14;16.63;;;10.27;;
36257;SDS011;22294;52.044;4.582;2022-10-31T04:48:39;14.32;;;9.75;;
36257;SDS011;22294;52.044;4.582;2022-10-31T04:51:04;14.73;;;10.00;;
36257;SDS011;22294;52.044;4.582;2022-10-31T04:53:30;15.13;;;10.10;;
36257;SDS011;22294;52.044;4.582;2022-10-31T04:55:57;17.00;;;10.27;;
36257;SDS011;22294;52.044;4.582;2022-10-31T04:58:24;13.75;;;10.95;;
36257;SDS011;22294;52.044;4.582;2022-10-31T05:00:52;15.45;;;10.88;;
36257;SDS011;22294;52.044;4.582;2022-10-31T05:03:18;14.60;;;10.20;;
36257;SDS011;22294;52.044;4.582;2022-10-31T05:05:43;15.00;;;9.98;;
36257;SDS011;22294;52.044;4.582;2022-10-31T05:08:09;16.75;;;10.38;;
36257;SDS011;22294;52.044;4.582;2022-10-31T05:10:34;15.68;;;9.65;;
36257;SDS011;22294;52.044;4.582;2022-10-31T05:13:00;13.55;;;10.60;;
36257;SDS011;22294;52.044;4.582;2022-10-31T05:15:27;16.45;;;11.02;;
36257;SDS011;22294;52.044;4.582;2022-10-31T05:17:53;17.70;;;10.60;;
36257;SDS011;22294;52.044;4.582;2022-10-31T05:20:20;13.95;;;10.90;;
36257;SDS011;22294;52.044;4.582;2022-10-31T05:22:51;12.82;;;9.93;;
36257;SDS011;22294;52.044;4.582;2022-10-31T05:25:19;17.52;;;10.48;;
36257;SDS011;22294;52.044;4.582;2022-10-31T05:27:46;15.85;;;10.07;;
36257;SDS011;22294;52.044;4.582;2022-10-31T05:30:14;17.23;;;10.75;;
36257;SDS011;22294;52.044;4.582;2022-10-31T05:32:45;13.85;;;10.40;;
36257;SDS011;22294;52.044;4.582;2022-10-31T05:35:13;14.20;;;10.15;;
36257;SDS011;22294;52.044;4.582;2022-10-31T05:37:43;15.30;;;11.02;;
36257;SDS011;22294;52.044;4.582;2022-10-31T05:40:10;15.07;;;10.48;;
36257;SDS011;22294;52.044;4.582;2022-10-31T05:42:41;13.90;;;10.00;;
36257;SDS011;22294;52.044;4.582;2022-10-31T05:45:08;16.02;;;10.82;;
36257;SDS011;22294;52.044;4.582;2022-10-31T05:47:35;16.63;;;10.70;;
36257;SDS011;22294;52.044;4.582;2022-10-31T05:50:00;17.35;;;11.38;;
36257;SDS011;22294;52.044;4.582;2022-10-31T05:52:25;17.15;;;12.02;;
36257;SDS011;22294;52.044;4.582;2022-10-31T05:54:52;18.77;;;12.55;;
36257;SDS011;22294;52.044;4.582;2022-10-31T05:57:17;18.35;;;12.00;;
36257;SDS011;22294;52.044;4.582;2022-10-31T05:59:42;18.45;;;12.48;;
36257;SDS011;22294;52.044;4.582;2022-10-31T06:02:08;17.90;;;13.40;;
36257;SDS011;22294;52.044;4.582;2022-10-31T06:04:33;20.98;;;14.25;;
36257;SDS011;22294;52.044;4.582;2022-10-31T06:06:58;21.73;;;15.48;;
36257;SDS011;22294;52.044;4.582;2022-10-31T06:09:23;25.98;;;14.77;;
36257;SDS011;22294;52.044;4.582;2022-10-31T06:11:49;26.20;;;16.08;;
36257;SDS011;22294;52.044;4.582;2022-10-31T06:14:14;22.35;;;15.35;;
36257;SDS011;22294;52.044;4.582;2022-10-31T06:16:39;23.50;;;16.02;;
36257;SDS011;22294;52.044;4.582;2022-10-31T06:19:05;25.27;;;15.68;;
36257;SDS011;22294;52.044;4.582;2022-10-31T06:21:30;21.40;;;14.38;;
36257;SDS011;22294;52.044;4.582;2022-10-31T06:23:55;22.83;;;16.13;;
36257;SDS011;22294;52.044;4.582;2022-10-31T06:26:21;21.65;;;15.50;;
36257;SDS011;22294;52.044;4.582;2022-10-31T06:28:46;23.75;;;15.50;;
36257;SDS011;22294;52.044;4.582;2022-10-31T06:31:11;25.48;;;16.10;;
36257;SDS011;22294;52.044;4.582;2022-10-31T06:33:36;23.48;;;16.08;;
36257;SDS011;22294;52.044;4.582;2022-10-31T06:36:02;24.27;;;16.35;;
36257;SDS011;22294;52.044;4.582;2022-10-31T06:38:27;29.38;;;17.48;;
36257;SDS011;22294;52.044;4.582;2022-10-31T06:40:53;37.33;;;17.45;;
36257;SDS011;22294;52.044;4.582;2022-10-31T06:43:20;33.83;;;18.52;;
36257;SDS011;22294;52.044;4.582;2022-10-31T06:45:46;30.50;;;17.45;;
36257;SDS011;22294;52.044;4.582;2022-10-31T06:48:11;38.88;;;18.30;;
36257;SDS011;22294;52.044;4.582;2022-10-31T06:50:36;37.88;;;16.13;;
36257;SDS011;22294;52.044;4.582;2022-10-31T06:53:02;54.53;;;15.52;;
36257;SDS011;22294;52.044;4.582;2022-10-31T06:55:27;36.47;;;14.90;;
36257;SDS011;22294;52.044;4.582;2022-10-31T06:57:53;39.15;;;17.05;;
36257;SDS011;22294;52.044;4.582;2022-10-31T07:00:20;31.65;;;16.23;;
36257;SDS011;22294;52.044;4.582;2022-10-31T07:02:53;30.52;;;15.10;;
36257;SDS011;22294;52.044;4.582;2022-10-31T07:05:21;25.08;;;13.57;;
36257;SDS011;22294;52.044;4.582;2022-10-31T07:07:47;29.63;;;14.60;;
36257;SDS011;22294;52.044;4.582;2022-10-31T07:10:16;23.48;;;13.48;;
36257;SDS011;22294;52.044;4.582;2022-10-31T07:12:41;25.42;;;14.27;;
36257;SDS011;22294;52.044;4.582;2022-10-31T07:15:06;28.67;;;15.02;;
36257;SDS011;22294;52.044;4.582;2022-10-31T07:17:32;38.53;;;14.02;;
36257;SDS011;22294;52.044;4.582;2022-10-31T07:19:57;38.15;;;14.98;;
36257;SDS011;22294;52.044;4.582;2022-10-31T07:22:22;36.35;;;14.45;;
36257;SDS011;22294;52.044;4.582;2022-10-31T07:24:48;34.95;;;13.23;;
36257;SDS011;22294;52.044;4.582;2022-10-31T07:27:13;32.03;;;15.18;;
36257;SDS011;22294;52.044;4.582;2022-10-31T07:29:38;27.23;;;14.23;;
36257;SDS011;22294;52.044;4.582;2022-10-31T07:32:03;35.58;;;15.35;;
36257;SDS011;22294;52.044;4.582;2022-10-31T07:34:29;24.52;;;14.02;;
36257;SDS011;22294;52.044;4.582;2022-10-31T07:36:54;34.90;;;15.23;;
36257;SDS011;22294;52.044;4.582;2022-10-31T07:39:19;28.58;;;14.88;;
36257;SDS011;22294;52.044;4.582;2022-10-31T07:41:45;24.77;;;14.82;;
36257;SDS011;22294;52.044;4.582;2022-10-31T07:44:10;26.02;;;13.77;;
36257;SDS011;22294;52.044;4.582;2022-10-31T07:46:35;35.33;;;15.55;;
36257;SDS011;22294;52.044;4.582;2022-10-31T07:49:00;38.83;;;14.65;;
36257;SDS011;22294;52.044;4.582;2022-10-31T07:51:26;35.25;;;16.25;;
36257;SDS011;22294;52.044;4.582;2022-10-31T07:53:51;27.83;;;15.57;;
36257;SDS011;22294;52.044;4.582;2022-10-31T07:56:17;55.58;;;15.77;;
36257;SDS011;22294;52.044;4.582;2022-10-31T07:58:42;37.78;;;17.17;;
36257;SDS011;22294;52.044;4.582;2022-10-31T08:01:07;45.38;;;14.88;;
36257;SDS011;22294;52.044;4.582;2022-10-31T08:03:32;66.00;;;15.88;;
36257;SDS011;22294;52.044;4.582;2022-10-31T08:05:58;50.70;;;16.10;;
36257;SDS011;22294;52.044;4.582;2022-10-31T08:08:23;42.22;;;18.50;;
36257;SDS011;22294;52.044;4.582;2022-10-31T08:10:49;41.13;;;19.52;;
36257;SDS011;22294;52.044;4.582;2022-10-31T08:13:14;38.08;;;18.80;;
36257;SDS011;22294;52.044;4.582;2022-10-31T08:15:40;31.27;;;20.23;;
36257;SDS011;22294;52.044;4.582;2022-10-31T08:18:10;56.42;;;18.25;;
36257;SDS011;22294;52.044;4.582;2022-10-31T08:20:40;34.95;;;18.52;;
36257;SDS011;22294;52.044;4.582;2022-10-31T08:23:06;40.35;;;18.27;;
36257;SDS011;22294;52.044;4.582;2022-10-31T08:25:32;40.38;;;19.20;;
36257;SDS011;22294;52.044;4.582;2022-10-31T08:27:59;31.98;;;18.58;;
36257;SDS011;22294;52.044;4.582;2022-10-31T08:30:25;28.85;;;18.80;;
36257;SDS011;22294;52.044;4.582;2022-10-31T08:33:13;32.97;;;20.50;;
36257;SDS011;22294;52.044;4.582;2022-10-31T08:35:40;30.08;;;20.33;;
36257;SDS011;22294;52.044;4.582;2022-10-31T08:38:05;30.17;;;21.17;;
36257;SDS011;22294;52.044;4.582;2022-10-31T08:40:32;35.97;;;23.42;;
36257;SDS011;22294;52.044;4.582;2022-10-31T08:43:02;35.03;;;22.25;;
36257;SDS011;22294;52.044;4.582;2022-10-31T08:45:29;35.13;;;22.40;;
36257;SDS011;22294;52.044;4.582;2022-10-31T08:47:56;33.03;;;21.42;;
36257;SDS011;22294;52.044;4.582;2022-10-31T08:50:23;35.47;;;22.13;;
36257;SDS011;22294;52.044;4.582;2022-10-31T08:52:48;36.70;;;21.33;;
36257;SDS011;22294;52.044;4.582;2022-10-31T08:55:14;34.42;;;22.38;;
36257;SDS011;22294;52.044;4.582;2022-10-31T08:57:39;33.03;;;22.00;;
36257;SDS011;22294;52.044;4.582;2022-10-31T09:00:05;31.05;;;21.15;;
36257;SDS011;22294;52.044;4.582;2022-10-31T09:02:30;33.63;;;21.92;;
36257;SDS011;22294;52.044;4.582;2022-10-31T09:04:56;30.73;;;22.70;;
36257;SDS011;22294;52.044;4.582;2022-10-31T09:07:21;31.63;;;22.23;;
36257;SDS011;22294;52.044;4.582;2022-10-31T09:09:46;30.33;;;20.73;;
36257;SDS011;22294;52.044;4.582;2022-10-31T09:12:12;30.27;;;21.38;;
36257;SDS011;22294;52.044;4.582;2022-10-31T09:14:37;32.85;;;21.80;;
36257;SDS011;22294;52.044;4.582;2022-10-31T09:17:02;31.92;;;21.13;;
36257;SDS011;22294;52.044;4.582;2022-10-31T09:19:27;32.42;;;21.30;;
36257;SDS011;22294;52.044;4.582;2022-10-31T09:21:53;30.67;;;21.20;;
36257;SDS011;22294;52.044;4.582;2022-10-31T09:24:19;28.95;;;20.30;;
36257;SDS011;22294;52.044;4.582;2022-10-31T09:26:44;29.60;;;19.33;;
36257;SDS011;22294;52.044;4.582;2022-10-31T09:29:10;30.30;;;19.38;;
36257;SDS011;22294;52.044;4.582;2022-10-31T09:31:35;27.73;;;18.95;;
36257;SDS011;22294;52.044;4.582;2022-10-31T09:34:01;28.40;;;18.33;;
36257;SDS011;22294;52.044;4.582;2022-10-31T09:36:26;31.98;;;19.90;;
36257;SDS011;22294;52.044;4.582;2022-10-31T09:38:51;27.83;;;19.63;;
36257;SDS011;22294;52.044;4.582;2022-10-31T09:49:07;26.80;;;17.33;;
36257;SDS011;22294;52.044;4.582;2022-10-31T09:51:42;26.58;;;17.52;;
36257;SDS011;22294;52.044;4.582;2022-10-31T09:54:14;27.58;;;18.30;;
36257;SDS011;22294;52.044;4.582;2022-10-31T09:56:43;27.92;;;18.38;;
36257;SDS011;22294;52.044;4.582;2022-10-31T09:59:25;24.98;;;18.67;;
36257;SDS011;22294;52.044;4.582;2022-10-31T10:02:05;27.10;;;17.95;;
36257;SDS011;22294;52.044;4.582;2022-10-31T10:05:03;27.70;;;18.73;;
36257;SDS011;22294;52.044;4.582;2022-10-31T10:16:27;30.40;;;18.42;;
36257;SDS011;22294;52.044;4.582;2022-10-31T10:21:41;26.30;;;18.50;;
36257;SDS011;22294;52.044;4.582;2022-10-31T10:24:17;29.92;;;18.63;;
36257;SDS011;22294;52.044;4.582;2022-10-31T10:26:49;28.30;;;18.90;;
36257;SDS011;22294;52.044;4.582;2022-10-31T10:32:05;28.38;;;18.85;;
36257;SDS011;22294;52.044;4.582;2022-10-31T10:34:38;31.98;;;19.20;;
36257;SDS011;22294;52.044;4.582;2022-10-31T10:37:30;31.95;;;21.13;;
36257;SDS011;22294;52.044;4.582;2022-10-31T10:40:16;28.27;;;18.13;;
36257;SDS011;22294;52.044;4.582;2022-10-31T10:42:45;28.42;;;19.08;;
36257;SDS011;22294;52.044;4.582;2022-10-31T10:45:39;27.45;;;17.77;;
36257;SDS011;22294;52.044;4.582;2022-10-31T10:52:18;33.60;;;18.63;;
36257;SDS011;22294;52.044;4.582;2022-10-31T10:57:13;30.48;;;18.25;;
36257;SDS011;22294;52.044;4.582;2022-10-31T10:59:51;28.73;;;18.13;;
36257;SDS011;22294;52.044;4.582;2022-10-31T11:02:17;29.95;;;18.67;;
36257;SDS011;22294;52.044;4.582;2022-10-31T11:04:45;31.75;;;18.52;;
36257;SDS011;22294;52.044;4.582;2022-10-31T11:07:14;29.60;;;19.08;;
36257;SDS011;22294;52.044;4.582;2022-10-31T11:09:40;29.40;;;19.38;;
36257;SDS011;22294;52.044;4.582;2022-10-31T11:12:07;32.88;;;20.05;;
36257;SDS011;22294;52.044;4.582;2022-10-31T11:14:42;30.52;;;17.98;;
36257;SDS011;22294;52.044;4.582;2022-10-31T11:17:17;27.00;;;17.83;;
36257;SDS011;22294;52.044;4.582;2022-10-31T11:19:47;29.83;;;18.90;;
36257;SDS011;22294;52.044;4.582;2022-10-31T11:22:16;30.10;;;19.08;;
36257;SDS011;22294;52.044;4.582;2022-10-31T11:24:42;35.10;;;18.42;;
36257;SDS011;22294;52.044;4.582;2022-10-31T11:27:13;32.15;;;18.65;;
36257;SDS011;22294;52.044;4.582;2022-10-31T11:29:45;34.83;;;18.90;;
36257;SDS011;22294;52.044;4.582;2022-10-31T11:32:18;27.98;;;18.42;;
36257;SDS011;22294;52.044;4.582;2022-10-31T11:34:50;26.73;;;18.83;;
36257;SDS011;22294;52.044;4.582;2022-10-31T11:37:22;31.63;;;18.70;;
36257;SDS011;22294;52.044;4.582;2022-10-31T11:39:54;25.38;;;18.13;;
36257;SDS011;22294;52.044;4.582;2022-10-31T11:42:22;28.30;;;18.48;;
36257;SDS011;22294;52.044;4.582;2022-10-31T11:44:51;28.27;;;17.33;;
36257;SDS011;22294;52.044;4.582;2022-10-31T11:47:23;28.13;;;19.55;;
36257;SDS011;22294;52.044;4.582;2022-10-31T11:49:52;30.27;;;18.38;;
36257;SDS011;22294;52.044;4.582;2022-10-31T11:54:55;28.35;;;17.42;;
36257;SDS011;22294;52.044;4.582;2022-10-31T11:57:41;28.33;;;18.70;;
36257;SDS011;22294;52.044;4.582;2022-10-31T12:02:48;29.40;;;18.53;;
36257;SDS011;22294;52.044;4.582;2022-10-31T12:05:18;27.58;;;18.90;;
36257;SDS011;22294;52.044;4.582;2022-10-31T12:07:46;27.67;;;19.17;;
36257;SDS011;22294;52.044;4.582;2022-10-31T12:10:12;34.85;;;18.90;;
36257;SDS011;22294;52.044;4.582;2022-10-31T12:15:29;37.13;;;20.65;;
36257;SDS011;22294;52.044;4.582;2022-10-31T12:20:56;33.95;;;19.98;;
36257;SDS011;22294;52.044;4.582;2022-10-31T12:23:50;31.77;;;18.88;;
36257;SDS011;22294;52.044;4.582;2022-10-31T12:26:19;30.52;;;20.05;;
36257;SDS011;22294;52.044;4.582;2022-10-31T12:29:00;32.72;;;20.23;;
36257;SDS011;22294;52.044;4.582;2022-10-31T12:34:58;30.92;;;20.90;;
36257;SDS011;22294;52.044;4.582;2022-10-31T12:43:14;37.60;;;23.00;;
36257;SDS011;22294;52.044;4.582;2022-10-31T12:51:08;41.28;;;22.35;;
36257;SDS011;22294;52.044;4.582;2022-10-31T12:53:40;41.50;;;24.27;;
36257;SDS011;22294;52.044;4.582;2022-10-31T12:58:37;36.00;;;23.73;;
36257;SDS011;22294;52.044;4.582;2022-10-31T13:01:10;39.08;;;23.92;;
36257;SDS011;22294;52.044;4.582;2022-10-31T13:06:24;47.03;;;26.88;;
36257;SDS011;22294;52.044;4.582;2022-10-31T13:08:58;46.60;;;25.52;;
36257;SDS011;22294;52.044;4.582;2022-10-31T13:11:28;42.67;;;26.27;;
36257;SDS011;22294;52.044;4.582;2022-10-31T13:14:10;49.70;;;27.80;;
36257;SDS011;22294;52.044;4.582;2022-10-31T13:16:42;46.75;;;28.98;;
36257;SDS011;22294;52.044;4.582;2022-10-31T13:19:18;43.47;;;26.33;;
36257;SDS011;22294;52.044;4.582;2022-10-31T13:24:38;50.05;;;28.73;;
36257;SDS011;22294;52.044;4.582;2022-10-31T13:27:18;45.13;;;28.73;;
36257;SDS011;22294;52.044;4.582;2022-10-31T13:30:10;48.80;;;28.17;;
36257;SDS011;22294;52.044;4.582;2022-10-31T13:32:58;47.28;;;27.17;;
36257;SDS011;22294;52.044;4.582;2022-10-31T13:41:37;46.35;;;26.33;;
36257;SDS011;22294;52.044;4.582;2022-10-31T13:46:44;54.28;;;28.63;;
36257;SDS011;22294;52.044;4.582;2022-10-31T13:51:53;49.10;;;28.92;;
36257;SDS011;22294;52.044;4.582;2022-10-31T13:54:42;59.28;;;29.42;;
36257;SDS011;22294;52.044;4.582;2022-10-31T13:57:19;50.33;;;29.60;;
36257;SDS011;22294;52.044;4.582;2022-10-31T13:59:54;53.47;;;29.60;;
36257;SDS011;22294;52.044;4.582;2022-10-31T14:02:31;53.55;;;29.98;;
36257;SDS011;22294;52.044;4.582;2022-10-31T14:07:43;53.83;;;30.08;;
36257;SDS011;22294;52.044;4.582;2022-10-31T14:10:20;57.53;;;31.70;;
36257;SDS011;22294;52.044;4.582;2022-10-31T14:12:49;50.83;;;29.83;;
36257;SDS011;22294;52.044;4.582;2022-10-31T14:15:19;53.80;;;31.63;;
36257;SDS011;22294;52.044;4.582;2022-10-31T14:17:51;56.08;;;32.33;;
36257;SDS011;22294;52.044;4.582;2022-10-31T14:20:42;56.35;;;31.75;;
36257;SDS011;22294;52.044;4.582;2022-10-31T14:28:51;59.55;;;32.22;;
36257;SDS011;22294;52.044;4.582;2022-10-31T14:31:38;53.70;;;32.13;;
36257;SDS011;22294;52.044;4.582;2022-10-31T14:50:49;58.17;;;33.17;;
36257;SDS011;22294;52.044;4.582;2022-10-31T14:53:18;60.95;;;34.03;;
36257;SDS011;22294;52.044;4.582;2022-10-31T14:55:48;55.63;;;32.75;;
36257;SDS011;22294;52.044;4.582;2022-10-31T14:58:17;65.38;;;32.85;;
36257;SDS011;22294;52.044;4.582;2022-10-31T15:00:46;59.17;;;32.92;;
36257;SDS011;22294;52.044;4.582;2022-10-31T15:03:14;58.88;;;31.73;;
36257;SDS011;22294;52.044;4.582;2022-10-31T15:06:00;56.97;;;31.70;;
36257;SDS011;22294;52.044;4.582;2022-10-31T15:11:25;59.72;;;30.35;;
36257;SDS011;22294;52.044;4.582;2022-10-31T15:13:53;56.53;;;30.95;;
36257;SDS011;22294;52.044;4.582;2022-10-31T15:16:24;55.80;;;31.15;;
36257;SDS011;22294;52.044;4.582;2022-10-31T15:18:58;55.10;;;30.05;;
36257;SDS011;22294;52.044;4.582;2022-10-31T15:21:27;56.45;;;31.38;;
36257;SDS011;22294;52.044;4.582;2022-10-31T15:23:54;59.10;;;32.10;;
36257;SDS011;22294;52.044;4.582;2022-10-31T15:26:22;57.63;;;32.67;;
36257;SDS011;22294;52.044;4.582;2022-10-31T15:28:59;55.13;;;31.08;;
36257;SDS011;22294;52.044;4.582;2022-10-31T15:31:27;61.28;;;30.13;;
36257;SDS011;22294;52.044;4.582;2022-10-31T15:33:52;60.75;;;31.80;;
36257;SDS011;22294;52.044;4.582;2022-10-31T15:36:23;56.08;;;29.80;;
36257;SDS011;22294;52.044;4.582;2022-10-31T15:38:50;56.17;;;30.42;;
36257;SDS011;22294;52.044;4.582;2022-10-31T15:41:23;63.35;;;32.70;;
36257;SDS011;22294;52.044;4.582;2022-10-31T15:43:55;60.97;;;30.92;;
36257;SDS011;22294;52.044;4.582;2022-10-31T15:46:26;56.58;;;31.65;;
36257;SDS011;22294;52.044;4.582;2022-10-31T15:48:52;55.90;;;31.20;;
36257;SDS011;22294;52.044;4.582;2022-10-31T15:51:24;65.18;;;32.33;;
36257;SDS011;22294;52.044;4.582;2022-10-31T15:53:51;55.58;;;30.13;;
36257;SDS011;22294;52.044;4.582;2022-10-31T15:56:29;50.83;;;28.75;;
36257;SDS011;22294;52.044;4.582;2022-10-31T15:58:57;55.40;;;30.38;;
36257;SDS011;22294;52.044;4.582;2022-10-31T16:01:26;51.17;;;28.13;;
36257;SDS011;22294;52.044;4.582;2022-10-31T16:04:00;49.58;;;28.27;;
36257;SDS011;22294;52.044;4.582;2022-10-31T16:06:28;55.50;;;29.77;;
36257;SDS011;22294;52.044;4.582;2022-10-31T16:08:53;57.28;;;31.35;;
36257;SDS011;22294;52.044;4.582;2022-10-31T16:14:18;62.30;;;30.65;;
36257;SDS011;22294;52.044;4.582;2022-10-31T16:16:48;51.20;;;30.50;;
36257;SDS011;22294;52.044;4.582;2022-10-31T16:21:49;54.67;;;31.40;;
36257;SDS011;22294;52.044;4.582;2022-10-31T16:24:28;52.13;;;29.30;;
36257;SDS011;22294;52.044;4.582;2022-10-31T16:27:02;60.22;;;31.45;;
36257;SDS011;22294;52.044;4.582;2022-10-31T16:32:27;52.70;;;28.55;;
36257;SDS011;22294;52.044;4.582;2022-10-31T16:34:58;51.60;;;29.00;;
36257;SDS011;22294;52.044;4.582;2022-10-31T16:37:26;48.28;;;27.60;;
36257;SDS011;22294;52.044;4.582;2022-10-31T16:39:52;52.55;;;28.33;;
36257;SDS011;22294;52.044;4.582;2022-10-31T16:42:17;52.67;;;27.58;;
36257;SDS011;22294;52.044;4.582;2022-10-31T16:44:43;46.10;;;26.85;;